Valkyrie — WDE9186 — position and weather

sailwx.info

Track history (hours):
 
Tides and Currents Weather Stations Pressure Air Temp Water Temp Dewpoint Dewpoint Depression Visibility Wind Speed Wind Dir Waves Ship Positions

Valkyrie

Owner: Marina Management Corp., Pensacola, FL. More information available from US FCC via Universal Licensing System and Coast Guard Vessel Documentation Center.

Last reported at 2017-Mar-17 13:11 UTC. Time now 2017-Mar-24 12:11 UTC.
Position N 26°18' W 081°55'.

Length 23 m; draft 2.1 m.

Type: Pleasure craft. MMSI: 367414480.

Date/timePositionNaut miles runAvg speedWind from/ knotsBaromVisibWave heightAir tempDewpointWater temp
2017-Mar-17 13:11N 26°18' W 081°55'5 8.1
2017-Mar-17 12:33N 26°23' W 081°57'5 5.0
2017-Mar-17 11:33N 26°28' W 081°58'0 0.0
2017-Mar-17 10:33N 26°28' W 081°58'0 0.0
2017-Mar-17 09:33N 26°28' W 081°58'0 0.0
2017-Mar-17 08:33N 26°28' W 081°58'0 0.0
2017-Mar-17 07:33N 26°28' W 081°58'0 0.0
2017-Mar-17 06:33N 26°28' W 081°58'0 0.0
2017-Mar-17 05:33N 26°28' W 081°58'0 0.0
2017-Mar-17 04:33N 26°28' W 081°58'0 0.0
2017-Mar-17 03:34N 26°28' W 081°58'0 0.0
2017-Mar-17 02:33N 26°28' W 081°58'0 0.0
2017-Mar-17 01:33N 26°28' W 081°58'0 0.0
2017-Mar-17 00:33N 26°28' W 081°58'0 0.0
2017-Mar-16 23:33N 26°28' W 081°58'0 0.0
2017-Mar-16 22:33N 26°28' W 081°58'0 0.0
2017-Mar-16 21:21N 26°28' W 081°58'0 0.0
2017-Mar-16 20:33N 26°28' W 081°58'0 0.0
2017-Mar-16 19:33N 26°28' W 081°58'0 0.0
2017-Mar-16 18:33N 26°28' W 081°58'0 0.0
2017-Mar-16 17:34N 26°28' W 081°58'0 0.0
2017-Mar-16 16:34N 26°28' W 081°58'3 3.3
2017-Mar-16 15:33N 26°30' W 082°01'3 3.5
2017-Mar-16 14:33N 26°29' W 082°05'18 1.1
2017-Mar-15 22:09N 26°44' W 082°15'  
Track history (hours):
 
Tides and Currents Weather Stations Pressure Air Temp Water Temp Dewpoint Dewpoint Depression Visibility Wind Speed Wind Dir Waves Ship Positions

Valkyrie

Owner: Marina Management Corp., Pensacola, FL. More information available from US FCC via Universal Licensing System and Coast Guard Vessel Documentation Center.

Last reported at 2017-Mar-17 13:11 UTC. Time now 2017-Mar-24 12:11 UTC.
Position N 26°18' W 081°55'.

Length 23 m; draft 2.1 m.

Type: Pleasure craft. MMSI: 367414480.

Date/timePositionNaut miles runAvg speedWind from/ knotsBaromVisibWave heightAir tempDewpointWater temp
2017-Mar-17 13:11N 26°18' W 081°55'5 8.1
2017-Mar-17 12:33N 26°23' W 081°57'5 5.0
2017-Mar-17 11:33N 26°28' W 081°58'0 0.0
2017-Mar-17 10:33N 26°28' W 081°58'0 0.0
2017-Mar-17 09:33N 26°28' W 081°58'0 0.0
2017-Mar-17 08:33N 26°28' W 081°58'0 0.0
2017-Mar-17 07:33N 26°28' W 081°58'0 0.0
2017-Mar-17 06:33N 26°28' W 081°58'0 0.0
2017-Mar-17 05:33N 26°28' W 081°58'0 0.0
2017-Mar-17 04:33N 26°28' W 081°58'0 0.0
2017-Mar-17 03:34N 26°28' W 081°58'0 0.0
2017-Mar-17 02:33N 26°28' W 081°58'0 0.0
2017-Mar-17 01:33N 26°28' W 081°58'0 0.0
2017-Mar-17 00:33N 26°28' W 081°58'0 0.0
2017-Mar-16 23:33N 26°28' W 081°58'0 0.0
2017-Mar-16 22:33N 26°28' W 081°58'0 0.0
2017-Mar-16 21:21N 26°28' W 081°58'0 0.0
2017-Mar-16 20:33N 26°28' W 081°58'0 0.0
2017-Mar-16 19:33N 26°28' W 081°58'0 0.0
2017-Mar-16 18:33N 26°28' W 081°58'0 0.0
2017-Mar-16 17:34N 26°28' W 081°58'0 0.0
2017-Mar-16 16:34N 26°28' W 081°58'3 3.3
2017-Mar-16 15:33N 26°30' W 082°01'3 3.5
2017-Mar-16 14:33N 26°29' W 082°05'18 1.1
2017-Mar-15 22:09N 26°44' W 082°15'  

Dump ship's entire track history